Ana Sayfa
METAR-TAF:

METAR-TAF

Havaalanları :

Ngaoundéré, Kamerun

Enlem: 07-21N, Boylam: 013-34E, yükseklik: 1114 m

Güncel hava durumu gözlemi

Rapor saat 17:00 UTC de 5 saat ve 50 dakika önce yapıldı.
Rüzgar kuzey/kuzeybatıdan 4 kt
Sıcaklık 25°C
Nem 26%
Basınç 1014 hPa
Görüş mesafesi: 1200 m
Toz Pusu

METAR: FKKN 251700Z 34004KT 1200 HZ NSC 25/04 Q1014

Saat: 23:50 (22:50 UTC)


TAF: eksik

4.000'den fazla havaalanı için hava durumu gözlemleri ve tahminleri (METAR ve TAF raporları).

Kullanılabilir istasyonlar harita üzerinde sarı ve kırmızı noktalarla gösterilir.

İstasyonun adını görmek için fareyi noktanın üzerinde gezdirin.

Sonrasında hava gözlem ve tahminlerini görmek için tıklayın.

Haritayı değiştirmek için: yaklaştırmak için siyah artı işaretli yeşil düğmeye ve uzaklaştırmak için de eksi işaretli düğmeye hızla tıklayın; bitişik haritalar için yeşil okları kullanın.


METAR-TAF: